Time;durP1;ratioP1;P1;durP2;ratioP2;P2;SDS_P1;SDS_P2;PMS_P1;PMS_P2;Temp;Humidity;BMP_temperature;BMP_pressure;BME280_temperature;BME280_humidity;BME280_pressure;Samples;Min_cycle;Max_cycle;Signal;HPM_P1;HPM_P2
2022/12/17 13:09:39;;;;;;;54.63;25.30;;;-1.60;99.90;;;;;;4776598;29;20496;-70
2022/12/17 13:12:29;;;;;;;48.23;22.50;;;-1.50;99.90;;;;;;4949284;28;20462;-70
2022/12/17 13:15:10;;;;;;;55.30;22.80;;;-1.40;99.90;;;;;;4976921;28;20435;-69
2022/12/17 13:17:44;;;;;;;57.10;24.30;;;-1.30;99.90;;;;;;4976872;28;20451;-69
2022/12/17 13:20:24;;;;;;;48.93;21.43;;;-1.30;99.90;;;;;;4976331;28;20455;-70
2022/12/17 13:22:53;;;;;;;58.90;25.33;;;-1.20;99.90;;;;;;4975951;28;20454;-70
2022/12/17 13:25:23;;;;;;;54.40;26.43;;;-1.20;99.90;;;;;;4974869;28;20517;-69
2022/12/17 13:27:51;;;;;;;54.83;24.83;;;-1.10;99.90;;;;;;4974425;28;20474;-70
2022/12/17 13:30:29;;;;;;;58.23;26.60;;;-1.10;99.90;;;;;;4975030;28;20463;-70
2022/12/17 13:33:18;;;;;;;54.87;26.83;;;-1.20;99.90;;;;;;4974583;28;20457;-70
2022/12/17 13:35:57;;;;;;;54.00;27.10;;;-1.20;99.90;;;;;;4974497;28;20515;-71
2022/12/17 13:38:30;;;;;;;52.80;26.50;;;-1.20;99.90;;;;;;4974495;28;20453;-70
2022/12/17 13:41:07;;;;;;;48.40;24.67;;;-1.20;99.90;;;;;;4974496;28;20443;-69
2022/12/17 13:43:39;;;;;;;50.00;25.00;;;-1.20;99.90;;;;;;4974145;28;20454;-71
2022/12/17 13:46:06;;;;;;;53.60;23.57;;;-1.30;99.90;;;;;;4980271;28;20503;-70
2022/12/17 13:48:33;;;;;;;54.97;24.70;;;-1.30;99.90;;;;;;4993603;28;20454;-71
2022/12/17 13:51:02;;;;;;;50.73;23.87;;;-1.40;99.90;;;;;;4994160;28;20977;-70
2022/12/17 13:53:32;;;;;;;54.70;24.33;;;-1.50;99.90;;;;;;4993794;28;21033;-70
2022/12/17 13:56:01;;;;;;;58.47;26.47;;;-1.50;99.90;;;;;;4993878;28;20453;-70
2022/12/17 13:58:32;;;;;;;53.73;25.20;;;-1.50;99.90;;;;;;4994187;28;20803;-70
2022/12/17 14:01:10;;;;;;;55.53;24.53;;;-1.50;99.90;;;;;;4993359;28;20446;-69
2022/12/17 14:03:37;;;;;;;57.77;26.77;;;-1.50;99.90;;;;;;4993614;28;20458;-70
2022/12/17 14:06:10;;;;;;;62.97;27.63;;;-1.50;99.90;;;;;;4993871;28;20481;-71
2022/12/17 14:08:37;;;;;;;60.70;28.57;;;-1.50;99.90;;;;;;4993939;28;20524;-70
2022/12/17 14:13:50;;;;;;;60.93;26.50;;;-1.60;99.90;;;;;;4993996;28;20489;-69
2022/12/17 14:16:18;;;;;;;56.23;25.77;;;-1.60;99.90;;;;;;4993608;28;20553;-70
2022/12/17 14:18:47;;;;;;;47.30;23.50;;;-1.60;99.90;;;;;;4993418;28;20537;-69
2022/12/17 14:21:14;;;;;;;62.00;24.30;;;-1.60;99.90;;;;;;4996113;28;20454;-70
2022/12/17 14:23:42;;;;;;;59.93;27.60;;;-1.60;99.90;;;;;;4996897;28;20461;-70
2022/12/17 14:26:11;;;;;;;53.63;25.97;;;-1.60;99.90;;;;;;4997651;28;20487;-69
2022/12/17 14:28:46;;;;;;;61.23;27.77;;;-1.60;99.90;;;;;;4997370;28;20523;-70
2022/12/17 14:31:19;;;;;;;50.73;26.10;;;-1.50;99.90;;;;;;4997113;28;20449;-70
2022/12/17 14:33:46;;;;;;;60.50;28.47;;;-1.50;99.90;;;;;;4997572;28;20513;-69
2022/12/17 14:36:20;;;;;;;61.20;28.27;;;-1.50;99.90;;;;;;4997380;28;20457;-70
2022/12/17 14:38:53;;;;;;;54.67;25.67;;;-1.40;99.90;;;;;;4998092;28;20442;-70
2022/12/17 14:44:07;;;;;;;60.77;25.33;;;-1.40;99.90;;;;;;4999876;28;20569;-68
2022/12/17 14:46:35;;;;;;;60.57;28.10;;;-1.30;99.90;;;;;;4999713;28;20895;-68
2022/12/17 14:49:04;;;;;;;63.03;26.67;;;-1.30;99.90;;;;;;4999212;28;20552;-68
2022/12/17 14:51:34;;;;;;;56.17;28.20;;;-1.30;99.90;;;;;;4999723;28;20557;-68
2022/12/17 14:54:24;;;;;;;66.37;27.80;;;-1.30;99.90;;;;;;5000066;28;20454;-69
2022/12/17 14:56:56;;;;;;;53.33;26.27;;;-1.30;99.90;;;;;;4999386;28;20488;-69
2022/12/17 14:59:26;;;;;;;56.67;27.07;;;-1.30;99.90;;;;;;4999841;28;20442;-69
2022/12/17 15:01:54;;;;;;;58.53;25.30;;;-1.30;99.90;;;;;;4999967;28;20471;-69
2022/12/17 15:04:21;;;;;;;55.60;25.83;;;-1.40;99.90;;;;;;4999967;28;20450;-70
2022/12/17 15:06:49;;;;;;;60.70;27.50;;;-1.40;99.90;;;;;;4999096;28;20485;-70
2022/12/17 15:09:16;;;;;;;61.93;26.60;;;-1.50;99.90;;;;;;4999508;28;20462;-69
2022/12/17 15:11:43;;;;;;;63.07;29.87;;;-1.50;99.90;;;;;;4999392;28;21013;-68
2022/12/17 15:14:11;;;;;;;64.03;28.40;;;-1.60;99.90;;;;;;5000209;28;20450;-68
2022/12/17 15:16:38;;;;;;;65.57;27.77;;;-1.60;99.90;;;;;;4999116;28;20460;-69
2022/12/17 15:19:05;;;;;;;60.87;27.93;;;-1.60;99.90;;;;;;4998062;28;20513;-68
2022/12/17 15:21:32;;;;;;;56.03;26.63;;;-1.60;99.90;;;;;;4998728;28;20919;-69
2022/12/17 15:23:59;;;;;;;52.53;25.63;;;-1.60;99.90;;;;;;4999321;28;20497;-69
2022/12/17 15:26:26;;;;;;;51.60;23.93;;;-1.60;99.90;;;;;;4998492;28;20513;-68
2022/12/17 15:28:52;;;;;;;59.60;27.00;;;-1.60;99.90;;;;;;4998867;28;20457;-70
2022/12/17 15:31:22;;;;;;;58.30;26.33;;;-1.60;99.90;;;;;;4998427;28;20469;-67
2022/12/17 15:33:49;;;;;;;52.20;26.60;;;-1.60;99.90;;;;;;4998893;28;20462;-68
2022/12/17 15:36:16;;;;;;;55.67;24.27;;;-1.60;99.90;;;;;;4998862;28;20473;-69
2022/12/17 15:38:45;;;;;;;60.37;27.60;;;-1.60;99.90;;;;;;4998165;28;20761;-67
2022/12/17 15:43:56;;;;;;;55.43;24.77;;;-1.60;99.90;;;;;;5017168;28;20457;-68
2022/12/17 15:46:24;;;;;;;54.70;24.40;;;-1.70;99.90;;;;;;5017129;28;20495;-68
2022/12/17 15:48:51;;;;;;;59.20;25.40;;;-1.70;99.90;;;;;;5017357;28;20452;-68
2022/12/17 15:51:19;;;;;;;57.10;24.80;;;-1.80;99.90;;;;;;5024605;28;20765;-68
2022/12/17 15:53:47;;;;;;;60.13;28.00;;;-1.80;99.90;;;;;;5037196;28;20483;-69
2022/12/17 15:56:21;;;;;;;63.93;25.40;;;-1.80;99.90;;;;;;5037127;28;20949;-69
2022/12/17 15:58:48;;;;;;;68.37;27.37;;;-1.90;99.90;;;;;;5036958;28;20579;-68
2022/12/17 16:01:15;;;;;;;67.40;27.13;;;-1.90;99.90;;;;;;5029965;28;20456;-69
2022/12/17 16:03:43;;;;;;;61.10;27.73;;;-2.00;99.90;;;;;;5016882;28;20540;-68
2022/12/17 16:06:10;;;;;;;66.23;27.30;;;-2.00;99.90;;;;;;5017762;28;20560;-69
2022/12/17 16:08:38;;;;;;;68.20;26.77;;;-2.00;99.90;;;;;;5017080;28;20944;-69
2022/12/17 16:11:08;;;;;;;59.53;27.80;;;-1.90;99.90;;;;;;5017318;28;20468;-69
2022/12/17 16:13:34;;;;;;;62.10;26.87;;;-1.90;99.90;;;;;;5016934;28;20529;-70
2022/12/17 16:16:01;;;;;;;70.43;28.30;;;-1.80;99.90;;;;;;5017158;28;21025;-70
2022/12/17 16:18:28;;;;;;;65.10;26.07;;;-1.80;99.90;;;;;;5017553;28;20463;-69
2022/12/17 16:21:01;;;;;;;64.87;26.87;;;-1.70;99.90;;;;;;5018573;28;20471;-69
2022/12/17 16:23:28;;;;;;;58.27;24.90;;;-1.70;99.90;;;;;;5018575;28;20455;-69
2022/12/17 16:25:58;;;;;;;55.83;24.07;;;-1.70;99.90;;;;;;5017259;28;20572;-68
2022/12/17 16:28:26;;;;;;;65.37;24.73;;;-1.70;99.90;;;;;;5016511;28;20922;-69
2022/12/17 16:31:04;;;;;;;59.20;25.20;;;-1.80;99.90;;;;;;5016852;28;20453;-68
2022/12/17 16:33:32;;;;;;;50.43;24.57;;;-1.80;99.90;;;;;;5014218;28;20445;-66
2022/12/17 16:36:00;;;;;;;57.40;23.97;;;-1.80;99.90;;;;;;5005881;28;20457;-69
2022/12/17 16:38:27;;;;;;;53.97;24.90;;;-1.80;99.90;;;;;;5014286;28;20477;-69
2022/12/17 16:40:56;;;;;;;61.03;25.20;;;-1.80;99.90;;;;;;5014097;28;20463;-68
2022/12/17 16:43:23;;;;;;;59.20;23.83;;;-1.80;99.90;;;;;;5013386;28;20457;-68
2022/12/17 16:45:52;;;;;;;51.07;23.87;;;-1.80;99.90;;;;;;5013777;28;20599;-68
2022/12/17 16:48:19;;;;;;;53.60;24.40;;;-1.80;99.90;;;;;;5014334;28;21020;-67
2022/12/17 16:50:47;;;;;;;58.73;24.13;;;-1.80;99.90;;;;;;5014042;28;20457;-67
2022/12/17 16:53:16;;;;;;;50.07;22.97;;;-1.80;99.90;;;;;;5013948;28;20465;-68
2022/12/17 16:55:48;;;;;;;47.27;20.80;;;-1.90;99.90;;;;;;5014155;28;20540;-68
2022/12/17 16:58:16;;;;;;;52.30;23.30;;;-1.90;99.90;;;;;;5014396;28;20841;-68
2022/12/17 17:00:44;;;;;;;52.30;23.37;;;-1.90;99.90;;;;;;5014106;28;20548;-68
2022/12/17 17:03:11;;;;;;;53.77;24.07;;;-1.80;99.90;;;;;;5013821;28;20979;-68
2022/12/17 17:05:39;;;;;;;48.00;24.30;;;-1.80;99.90;;;;;;5013739;28;20491;-68
2022/12/17 17:08:07;;;;;;;58.20;26.07;;;-1.80;99.90;;;;;;5013824;28;20471;-70
2022/12/17 17:10:37;;;;;;;51.37;25.07;;;-1.70;99.90;;;;;;5013568;28;20456;-68
2022/12/17 17:13:04;;;;;;;61.33;24.40;;;-1.70;99.90;;;;;;5013444;28;20456;-68
2022/12/17 17:15:31;;;;;;;56.97;25.50;;;-1.70;99.90;;;;;;5013648;28;20457;-68
2022/12/17 17:17:58;;;;;;;62.07;25.50;;;-1.70;99.90;;;;;;5004215;28;20454;-68
2022/12/17 17:20:25;;;;;;;61.17;23.70;;;-1.70;99.90;;;;;;5001207;28;20453;-68
2022/12/17 17:22:52;;;;;;;47.17;22.87;;;-1.70;99.90;;;;;;5014011;28;20555;-68
2022/12/17 17:25:18;;;;;;;58.80;25.17;;;-1.70;99.90;;;;;;5013672;28;20863;-69
2022/12/17 17:27:47;;;;;;;50.13;25.87;;;-1.80;99.90;;;;;;5013453;28;20457;-68
2022/12/17 17:30:14;;;;;;;51.47;23.00;;;-1.80;99.90;;;;;;5013527;28;20483;-70
2022/12/17 17:32:41;;;;;;;57.10;24.77;;;-1.70;99.90;;;;;;5013256;28;20975;-68
2022/12/17 17:35:08;;;;;;;51.40;22.93;;;-1.70;99.90;;;;;;5013426;28;20547;-67
2022/12/17 17:37:35;;;;;;;54.40;24.97;;;-1.80;99.90;;;;;;5013679;28;20467;-67
2022/12/17 17:40:02;;;;;;;52.67;25.00;;;-1.80;99.90;;;;;;5013253;28;20457;-69
2022/12/17 17:42:29;;;;;;;49.27;23.73;;;-1.90;99.90;;;;;;5013653;28;20453;-69
2022/12/17 17:44:57;;;;;;;50.47;23.97;;;-1.90;99.90;;;;;;5014194;28;20496;-68
2022/12/17 17:47:24;;;;;;;56.07;25.90;;;-2.00;99.90;;;;;;5013318;28;20572;-70
2022/12/17 17:49:51;;;;;;;49.33;23.67;;;-2.10;99.90;;;;;;5013375;28;20466;-71
2022/12/17 17:52:18;;;;;;;46.70;25.57;;;-2.10;99.90;;;;;;5013806;28;20941;-70
2022/12/17 17:54:45;;;;;;;54.90;24.23;;;-2.10;99.90;;;;;;5013809;28;20519;-70
2022/12/17 17:57:11;;;;;;;58.00;25.97;;;-2.10;99.90;;;;;;5017565;28;20640;-71
2022/12/17 17:59:39;;;;;;;61.20;24.77;;;-2.10;99.90;;;;;;5017498;28;20905;-70
2022/12/17 18:02:07;;;;;;;66.40;26.10;;;-2.10;99.90;;;;;;5017787;28;20457;-69
2022/12/17 18:04:34;;;;;;;54.40;25.90;;;-2.20;99.90;;;;;;5017734;28;20755;-71
2022/12/17 18:07:01;;;;;;;51.50;26.27;;;-2.10;99.90;;;;;;5017577;28;20581;-71
2022/12/17 18:09:28;;;;;;;57.90;24.57;;;-2.10;99.90;;;;;;5017472;28;20464;-71
2022/12/17 18:11:55;;;;;;;52.43;24.30;;;-2.20;99.90;;;;;;5017455;28;20463;-70
2022/12/17 18:14:21;;;;;;;54.03;26.37;;;-2.20;99.90;;;;;;5017443;28;20453;-71
2022/12/17 18:16:48;;;;;;;55.43;23.50;;;-2.20;99.90;;;;;;5017375;28;20448;-70
2022/12/17 18:19:18;;;;;;;49.67;23.73;;;-2.30;99.90;;;;;;5017938;28;20461;-72
2022/12/17 18:21:46;;;;;;;60.17;26.00;;;-2.40;99.90;;;;;;5017474;28;20478;-73
2022/12/17 18:24:14;;;;;;;59.90;25.10;;;-2.40;99.90;;;;;;5016896;28;20847;-70
2022/12/17 18:26:43;;;;;;;60.53;25.90;;;-2.40;99.90;;;;;;5017229;28;20512;-70
2022/12/17 18:29:11;;;;;;;62.17;24.83;;;-2.30;99.90;;;;;;5017271;28;20452;-70
2022/12/17 18:31:38;;;;;;;52.53;24.80;;;-2.30;99.90;;;;;;5016996;28;20466;-69
2022/12/17 18:34:06;;;;;;;57.03;24.83;;;-2.30;99.90;;;;;;5016930;28;20452;-70
2022/12/17 18:36:37;;;;;;;47.70;23.90;;;-2.30;99.90;;;;;;5016844;28;20963;-70
2022/12/17 18:39:07;;;;;;;54.03;24.40;;;-2.30;99.90;;;;;;5016981;28;20441;-70
2022/12/17 18:44:20;;;;;;;44.37;20.83;;;-2.30;99.90;;;;;;5016820;28;20425;-71
2022/12/17 18:46:47;;;;;;;53.53;23.77;;;-2.40;99.90;;;;;;5016260;28;20493;-72
2022/12/17 18:49:16;;;;;;;47.40;23.17;;;-2.40;99.90;;;;;;5015924;28;20457;-71
2022/12/17 18:51:46;;;;;;;54.83;25.10;;;-2.40;99.90;;;;;;5016059;28;20467;-70
2022/12/17 18:54:15;;;;;;;45.80;22.20;;;-2.40;99.90;;;;;;5016189;28;20445;-71
2022/12/17 18:56:43;;;;;;;46.80;23.20;;;-2.40;99.90;;;;;;5015794;28;20448;-71
2022/12/17 18:59:13;;;;;;;58.43;24.07;;;-2.40;99.90;;;;;;5016544;28;20456;-70
2022/12/17 19:01:41;;;;;;;49.23;22.23;;;-2.50;99.90;;;;;;5016101;28;20444;-71
2022/12/17 19:04:10;;;;;;;52.07;22.90;;;-2.50;99.90;;;;;;5016827;28;20540;-69
2022/12/17 19:06:38;;;;;;;47.57;22.90;;;-2.50;99.90;;;;;;5016300;28;20520;-72
2022/12/17 19:09:16;;;;;;;47.60;20.90;;;-2.50;99.90;;;;;;5017504;28;20503;-71
2022/12/17 19:11:44;;;;;;;47.43;22.37;;;-2.50;99.90;;;;;;5016670;28;20441;-71
2022/12/17 19:14:10;;;;;;;48.10;21.20;;;-2.50;99.90;;;;;;5017618;28;20548;-71
2022/12/17 19:16:38;;;;;;;44.60;22.37;;;-2.50;99.90;;;;;;5017043;28;20488;-71
2022/12/17 19:19:05;;;;;;;47.50;21.37;;;-2.50;99.90;;;;;;5017425;28;20467;-71
2022/12/17 19:21:33;;;;;;;41.67;21.93;;;-2.50;99.90;;;;;;5016861;28;20487;-70
2022/12/17 19:24:05;;;;;;;49.93;22.03;;;-2.50;99.90;;;;;;5016902;28;20457;-72
2022/12/17 19:26:34;;;;;;;49.83;23.03;;;-2.50;99.90;;;;;;5016439;28;20483;-71
2022/12/17 19:29:01;;;;;;;43.80;22.53;;;-2.50;99.90;;;;;;5016329;28;20523;-71
2022/12/17 19:31:30;;;;;;;48.13;20.83;;;-2.60;99.90;;;;;;5016108;28;20483;-71
2022/12/17 19:33:59;;;;;;;49.73;22.87;;;-2.60;99.90;;;;;;5016236;28;20457;-70
2022/12/17 19:36:29;;;;;;;41.27;19.47;;;-2.60;99.90;;;;;;5016009;28;20485;-68
2022/12/17 19:39:02;;;;;;;50.03;22.67;;;-2.60;99.90;;;;;;5016032;28;20937;-70
2022/12/17 19:41:30;;;;;;;46.60;24.03;;;-2.60;99.90;;;;;;5015897;28;20778;-70
2022/12/17 19:44:04;;;;;;;45.23;21.43;;;-2.60;99.90;;;;;;5017196;28;20472;-70
2022/12/17 19:46:34;;;;;;;49.03;22.40;;;-2.60;99.90;;;;;;5015096;28;20921;-70
2022/12/17 19:49:01;;;;;;;50.97;24.47;;;-2.60;99.90;;;;;;5015664;28;20503;-71
2022/12/17 19:51:29;;;;;;;41.87;19.87;;;-2.60;99.90;;;;;;5015357;28;20773;-70
2022/12/17 19:53:57;;;;;;;47.50;21.70;;;-2.60;99.90;;;;;;5015383;28;21000;-70
2022/12/17 19:56:25;;;;;;;45.40;22.17;;;-2.70;99.90;;;;;;5015397;28;20485;-70
2022/12/17 19:58:54;;;;;;;50.00;22.70;;;-2.70;99.90;;;;;;5015421;28;20470;-70
2022/12/17 20:01:24;;;;;;;51.20;22.77;;;-2.70;99.90;;;;;;5015819;28;20512;-70
2022/12/17 20:03:52;;;;;;;46.20;20.93;;;-2.70;99.90;;;;;;5015081;28;20873;-71
2022/12/17 20:06:21;;;;;;;51.33;22.30;;;-2.70;99.90;;;;;;5015689;28;20461;-68
2022/12/17 20:08:49;;;;;;;47.97;20.97;;;-2.80;99.90;;;;;;5017281;28;20648;-68
2022/12/17 20:11:35;;;;;;;45.70;18.97;;;-2.80;99.90;;;;;;5017275;28;20453;-69
2022/12/17 20:14:04;;;;;;;50.57;21.73;;;-2.80;99.90;;;;;;5016993;28;20515;-69
2022/12/17 20:16:35;;;;;;;44.03;21.57;;;-2.90;99.90;;;;;;5016694;28;20460;-69
2022/12/17 20:19:03;;;;;;;42.90;20.60;;;-2.90;99.90;;;;;;5016602;28;20887;-68
2022/12/17 20:21:30;;;;;;;49.03;21.20;;;-2.90;99.90;;;;;;5016700;28;20540;-68
2022/12/17 20:23:57;;;;;;;48.60;22.27;;;-3.00;99.90;;;;;;5016857;28;21051;-67
2022/12/17 20:26:25;;;;;;;53.30;21.80;;;-3.00;99.90;;;;;;5016528;28;20552;-68
2022/12/17 20:28:52;;;;;;;46.50;21.50;;;-2.90;99.90;;;;;;5016030;28;20461;-67
2022/12/17 20:31:19;;;;;;;50.13;21.03;;;-2.90;99.90;;;;;;5016987;28;20539;-69
2022/12/17 20:33:47;;;;;;;46.83;20.97;;;-2.90;99.90;;;;;;5016431;28;20779;-69
2022/12/17 20:36:16;;;;;;;47.30;20.77;;;-2.90;99.90;;;;;;5015363;28;20481;-69
2022/12/17 20:38:44;;;;;;;42.87;20.17;;;-2.90;99.90;;;;;;5015664;28;20877;-69
2022/12/17 20:41:11;;;;;;;54.80;21.43;;;-2.90;99.90;;;;;;5015603;28;20934;-69
2022/12/17 20:43:41;;;;;;;38.27;18.90;;;-3.00;99.90;;;;;;5016649;28;20457;-71
2022/12/17 20:46:09;;;;;;;40.73;18.10;;;-3.00;99.90;;;;;;5015471;28;20513;-71
2022/12/17 20:48:36;;;;;;;41.17;18.60;;;-3.10;99.90;;;;;;5014959;28;20566;-71
2022/12/17 20:51:07;;;;;;;45.73;19.90;;;-3.10;99.90;;;;;;5015543;28;20537;-70
2022/12/17 20:53:35;;;;;;;41.00;19.60;;;-3.20;99.90;;;;;;5016957;28;20445;-71
2022/12/17 20:56:03;;;;;;;44.03;19.40;;;-3.20;99.90;;;;;;5014551;28;20882;-71
2022/12/17 20:58:30;;;;;;;47.00;20.77;;;-3.20;99.90;;;;;;5014360;28;20459;-70
2022/12/17 21:01:05;;;;;;;37.97;19.27;;;-3.20;99.90;;;;;;5014876;28;20453;-71
2022/12/17 21:03:32;;;;;;;44.37;19.63;;;-3.20;99.90;;;;;;5014351;28;20519;-70
2022/12/17 21:06:10;;;;;;;41.40;19.57;;;-3.20;99.90;;;;;;5014203;28;20463;-71
2022/12/17 21:08:37;;;;;;;47.80;20.80;;;-3.20;99.90;;;;;;5014149;28;20531;-71
2022/12/17 21:11:05;;;;;;;51.33;19.90;;;-3.20;99.90;;;;;;5013872;28;20471;-71
2022/12/17 21:13:32;;;;;;;36.30;18.90;;;-3.20;99.90;;;;;;5014275;28;20528;-70
2022/12/17 21:16:01;;;;;;;41.00;20.93;;;-3.20;99.90;;;;;;5014385;28;20457;-72
2022/12/17 21:18:29;;;;;;;40.43;20.40;;;-3.30;99.90;;;;;;5014657;28;20453;-70
2022/12/17 21:20:58;;;;;;;41.60;20.43;;;-3.30;99.90;;;;;;5015417;28;20484;-71
2022/12/17 21:23:27;;;;;;;34.53;19.27;;;-3.40;99.90;;;;;;5015372;28;20566;-70
2022/12/17 21:25:59;;;;;;;45.63;20.67;;;-3.60;99.90;;;;;;5015045;28;20544;-71
2022/12/17 21:28:26;;;;;;;45.97;18.53;;;-3.60;99.90;;;;;;5016142;28;20477;-71
2022/12/17 21:30:52;;;;;;;42.47;20.03;;;-3.70;99.90;;;;;;5014296;28;20457;-71
2022/12/17 21:33:19;;;;;;;44.60;20.60;;;-3.60;99.90;;;;;;5014630;28;20543;-70
2022/12/17 21:35:46;;;;;;;38.77;18.17;;;-3.50;99.90;;;;;;5015042;28;20461;-70
2022/12/17 21:38:13;;;;;;;45.10;20.33;;;-3.40;99.90;;;;;;5014947;28;20531;-70
2022/12/17 21:40:42;;;;;;;42.80;20.23;;;-3.40;99.90;;;;;;5014403;28;20492;-70
2022/12/17 21:43:10;;;;;;;46.60;20.20;;;-3.40;99.90;;;;;;5014044;28;20551;-71
2022/12/17 21:45:38;;;;;;;50.10;21.10;;;-3.30;99.90;;;;;;5013859;28;20512;-71
2022/12/17 21:48:06;;;;;;;50.40;21.47;;;-3.30;99.90;;;;;;5014370;28;20549;-70
2022/12/17 21:50:34;;;;;;;44.93;21.03;;;-3.30;99.90;;;;;;5013973;28;20818;-69
2022/12/17 21:53:01;;;;;;;55.80;25.20;;;-3.40;99.90;;;;;;5014280;28;20492;-71
2022/12/17 21:55:28;;;;;;;45.67;23.73;;;-3.40;99.90;;;;;;5013826;28;20545;-70
2022/12/17 21:57:59;;;;;;;53.27;23.07;;;-3.40;99.90;;;;;;5013724;28;20460;-71
2022/12/17 22:00:25;;;;;;;53.53;21.20;;;-3.50;99.90;;;;;;5014040;28;20560;-70
2022/12/17 22:02:52;;;;;;;41.90;21.03;;;-3.60;99.90;;;;;;5013765;28;20540;-70
2022/12/17 22:05:19;;;;;;;45.60;20.33;;;-3.60;99.90;;;;;;5013780;28;20918;-70
2022/12/17 22:07:46;;;;;;;44.60;19.93;;;-3.60;99.90;;;;;;5013649;28;20555;-70
2022/12/17 22:10:13;;;;;;;40.87;19.80;;;-3.60;99.90;;;;;;5013753;28;20548;-70
2022/12/17 22:15:26;;;;;;;40.60;17.60;;;-3.50;99.90;;;;;;5013884;28;20504;-70
2022/12/17 22:17:54;;;;;;;41.37;18.87;;;-3.60;99.90;;;;;;5013511;28;20514;-70
2022/12/17 22:20:22;;;;;;;35.70;16.63;;;-3.60;99.90;;;;;;5013681;28;20477;-70
2022/12/17 22:22:49;;;;;;;42.50;17.37;;;-3.60;99.90;;;;;;5014006;28;20539;-69
2022/12/17 22:25:16;;;;;;;44.80;18.63;;;-3.70;99.90;;;;;;5014009;28;20457;-68
2022/12/17 22:27:43;;;;;;;39.23;18.17;;;-3.70;99.90;;;;;;5014169;28;20508;-69
2022/12/17 22:33:05;;;;;;;42.27;19.77;;;-3.70;99.90;;;;;;5014305;28;20493;-70
2022/12/17 22:35:34;;;;;;;40.70;20.70;;;-3.70;99.90;;;;;;5013411;28;20441;-70
2022/12/17 22:38:03;;;;;;;49.33;19.63;;;-3.70;99.90;;;;;;5014037;28;20460;-69
2022/12/17 22:40:31;;;;;;;39.87;19.13;;;-3.70;99.90;;;;;;5013407;28;20960;-70
2022/12/17 22:45:43;;;;;;;39.23;18.47;;;-3.70;99.90;;;;;;5016640;28;20548;-69
2022/12/17 22:48:11;;;;;;;46.00;20.20;;;-3.60;99.90;;;;;;5016327;28;20969;-72
2022/12/17 22:50:39;;;;;;;46.97;20.03;;;-3.50;99.90;;;;;;5016915;28;20472;-70
2022/12/17 22:53:06;;;;;;;37.87;19.20;;;-3.50;99.90;;;;;;5016461;28;20457;-70
2022/12/17 22:55:33;;;;;;;42.73;17.40;;;-3.50;99.90;;;;;;5016533;28;20457;-71
2022/12/17 22:58:00;;;;;;;44.67;18.53;;;-3.50;99.90;;;;;;5016447;28;20459;-70
2022/12/17 23:00:35;;;;;;;35.30;17.27;;;-3.50;99.90;;;;;;5016759;28;20463;-70
2022/12/17 23:03:03;;;;;;;38.47;19.17;;;-3.40;99.90;;;;;;5016729;28;20519;-70
2022/12/17 23:05:32;;;;;;;43.97;20.37;;;-3.40;99.90;;;;;;5016192;28;20503;-70
2022/12/17 23:07:59;;;;;;;36.53;17.80;;;-3.50;99.90;;;;;;5016448;28;20477;-70
2022/12/17 23:10:28;;;;;;;41.80;19.47;;;-3.50;99.90;;;;;;5016876;28;20457;-70
2022/12/17 23:12:55;;;;;;;40.63;18.17;;;-3.50;99.90;;;;;;5017312;28;20580;-71
2022/12/17 23:15:28;;;;;;;37.50;18.43;;;-3.70;99.90;;;;;;5016754;28;20859;-70
2022/12/17 23:17:57;;;;;;;37.03;17.00;;;-3.80;99.90;;;;;;5016535;28;20445;-70
2022/12/17 23:20:25;;;;;;;34.90;17.07;;;-3.90;99.90;;;;;;5016479;28;20503;-70
2022/12/17 23:22:54;;;;;;;42.43;16.37;;;-4.00;99.90;;;;;;5016263;28;20544;-69
2022/12/17 23:25:21;;;;;;;38.57;16.27;;;-4.20;99.90;;;;;;5016406;28;20806;-70
2022/12/17 23:27:48;;;;;;;37.70;16.90;;;-4.40;99.90;;;;;;5018366;28;20556;-68
2022/12/17 23:30:16;;;;;;;43.67;18.40;;;-4.30;99.90;;;;;;5016886;28;20489;-69
2022/12/17 23:32:44;;;;;;;40.50;18.57;;;-4.30;99.90;;;;;;5016286;28;20488;-68
2022/12/17 23:35:12;;;;;;;42.17;16.53;;;-4.30;99.90;;;;;;5016536;28;20453;-68
2022/12/17 23:37:39;;;;;;;39.50;16.13;;;-4.30;99.90;;;;;;5016939;28;20527;-68
2022/12/17 23:40:12;;;;;;;44.87;18.10;;;-4.40;99.90;;;;;;5016402;28;20747;-67
2022/12/17 23:42:39;;;;;;;39.07;16.80;;;-4.40;99.90;;;;;;5016416;28;20932;-67
2022/12/17 23:45:09;;;;;;;37.57;17.77;;;-4.40;99.90;;;;;;5015817;28;20549;-69
2022/12/17 23:47:37;;;;;;;36.80;17.67;;;-4.40;99.90;;;;;;5015506;28;20797;-68
2022/12/17 23:50:05;;;;;;;42.10;18.30;;;-4.40;99.90;;;;;;5015615;28;20500;-67
2022/12/17 23:52:32;;;;;;;37.57;18.87;;;-4.40;99.90;;;;;;5015349;28;20493;-68
2022/12/17 23:54:58;;;;;;;39.67;18.43;;;-4.40;99.90;;;;;;5015829;28;20453;-68
2022/12/17 23:57:27;;;;;;;50.20;17.80;;;-4.40;99.90;;;;;;5015923;28;20548;-68
2022/12/17 23:59:53;;;;;;;39.90;18.20;;;-4.50;99.90;;;;;;5015776;28;20463;-68
